sensor_id;sensor_type;location;lat;lon;timestamp;P1;durP1;ratioP1;P2;durP2;ratioP2
43319;SDS011;28914;48.722;9.332;2022-12-29T00:03:12;10.37;;;9.30;;
43319;SDS011;28914;48.722;9.332;2022-12-29T00:08:32;9.37;;;7.30;;
43319;SDS011;28914;48.722;9.332;2022-12-29T00:14:00;7.37;;;6.57;;
43319;SDS011;28914;48.722;9.332;2022-12-29T00:19:38;7.30;;;6.60;;
43319;SDS011;28914;48.722;9.332;2022-12-29T00:25:16;8.40;;;7.13;;
43319;SDS011;28914;48.722;9.332;2022-12-29T00:30:58;8.30;;;6.40;;
43319;SDS011;28914;48.722;9.332;2022-12-29T00:36:37;7.40;;;6.70;;
43319;SDS011;28914;48.722;9.332;2022-12-29T00:42:05;7.03;;;6.30;;
43319;SDS011;28914;48.722;9.332;2022-12-29T00:47:44;6.57;;;5.77;;
43319;SDS011;28914;48.722;9.332;2022-12-29T00:53:03;5.77;;;5.13;;
43319;SDS011;28914;48.722;9.332;2022-12-29T00:58:23;6.53;;;5.93;;
43319;SDS011;28914;48.722;9.332;2022-12-29T01:03:42;9.93;;;5.73;;
43319;SDS011;28914;48.722;9.332;2022-12-29T01:09:01;6.93;;;5.90;;
43319;SDS011;28914;48.722;9.332;2022-12-29T01:14:40;6.30;;;5.70;;
43319;SDS011;28914;48.722;9.332;2022-12-29T01:19:59;5.20;;;4.50;;
43319;SDS011;28914;48.722;9.332;2022-12-29T01:25:18;7.87;;;5.60;;
43319;SDS011;28914;48.722;9.332;2022-12-29T01:30:37;6.13;;;5.27;;
43319;SDS011;28914;48.722;9.332;2022-12-29T01:36:00;5.60;;;4.50;;
43319;SDS011;28914;48.722;9.332;2022-12-29T01:41:23;5.30;;;4.73;;
43319;SDS011;28914;48.722;9.332;2022-12-29T01:46:44;5.60;;;5.10;;
43319;SDS011;28914;48.722;9.332;2022-12-29T01:52:07;5.63;;;5.13;;
43319;SDS011;28914;48.722;9.332;2022-12-29T01:57:28;4.60;;;4.20;;
43319;SDS011;28914;48.722;9.332;2022-12-29T02:02:52;5.20;;;4.67;;
43319;SDS011;28914;48.722;9.332;2022-12-29T02:08:12;5.17;;;4.67;;
43319;SDS011;28914;48.722;9.332;2022-12-29T02:13:32;7.40;;;4.90;;
43319;SDS011;28914;48.722;9.332;2022-12-29T02:24:15;6.10;;;5.50;;
43319;SDS011;28914;48.722;9.332;2022-12-29T02:41:23;5.90;;;5.30;;
43319;SDS011;28914;48.722;9.332;2022-12-29T02:46:52;5.30;;;4.27;;
43319;SDS011;28914;48.722;9.332;2022-12-29T02:52:18;5.23;;;4.70;;
43319;SDS011;28914;48.722;9.332;2022-12-29T02:57:43;9.70;;;4.40;;
43319;SDS011;28914;48.722;9.332;2022-12-29T03:14:37;4.30;;;3.90;;
43319;SDS011;28914;48.722;9.332;2022-12-29T03:20:26;5.37;;;4.87;;
43319;SDS011;28914;48.722;9.332;2022-12-29T03:26:01;4.23;;;3.73;;
43319;SDS011;28914;48.722;9.332;2022-12-29T03:31:25;4.30;;;3.90;;
43319;SDS011;28914;48.722;9.332;2022-12-29T03:36:49;5.00;;;4.40;;
43319;SDS011;28914;48.722;9.332;2022-12-29T03:42:15;4.20;;;3.60;;
43319;SDS011;28914;48.722;9.332;2022-12-29T03:47:37;4.97;;;4.47;;
43319;SDS011;28914;48.722;9.332;2022-12-29T03:52:57;4.70;;;3.57;;
43319;SDS011;28914;48.722;9.332;2022-12-29T03:58:16;3.93;;;3.10;;
43319;SDS011;28914;48.722;9.332;2022-12-29T04:03:35;3.73;;;2.87;;
43319;SDS011;28914;48.722;9.332;2022-12-29T04:08:54;2.90;;;2.60;;
43319;SDS011;28914;48.722;9.332;2022-12-29T04:14:14;4.57;;;2.90;;
43319;SDS011;28914;48.722;9.332;2022-12-29T04:19:33;3.17;;;2.50;;
43319;SDS011;28914;48.722;9.332;2022-12-29T04:24:52;2.30;;;1.80;;
43319;SDS011;28914;48.722;9.332;2022-12-29T04:30:11;2.73;;;2.07;;
43319;SDS011;28914;48.722;9.332;2022-12-29T04:35:30;1.83;;;1.47;;
43319;SDS011;28914;48.722;9.332;2022-12-29T04:40:50;1.93;;;1.30;;
43319;SDS011;28914;48.722;9.332;2022-12-29T04:46:09;2.33;;;1.10;;
43319;SDS011;28914;48.722;9.332;2022-12-29T04:51:28;1.80;;;1.40;;
43319;SDS011;28914;48.722;9.332;2022-12-29T04:56:48;2.03;;;1.00;;
43319;SDS011;28914;48.722;9.332;2022-12-29T05:02:07;1.33;;;1.20;;
43319;SDS011;28914;48.722;9.332;2022-12-29T05:07:26;1.37;;;1.00;;
43319;SDS011;28914;48.722;9.332;2022-12-29T05:12:45;2.73;;;1.50;;
43319;SDS011;28914;48.722;9.332;2022-12-29T05:18:04;2.10;;;1.00;;
43319;SDS011;28914;48.722;9.332;2022-12-29T05:23:24;3.40;;;1.50;;
43319;SDS011;28914;48.722;9.332;2022-12-29T05:28:43;2.77;;;1.50;;
43319;SDS011;28914;48.722;9.332;2022-12-29T05:34:02;2.73;;;1.50;;
43319;SDS011;28914;48.722;9.332;2022-12-29T05:39:22;2.90;;;2.50;;
43319;SDS011;28914;48.722;9.332;2022-12-29T05:44:41;2.67;;;1.60;;
43319;SDS011;28914;48.722;9.332;2022-12-29T05:50:00;3.20;;;1.80;;
43319;SDS011;28914;48.722;9.332;2022-12-29T05:55:20;2.57;;;1.70;;
43319;SDS011;28914;48.722;9.332;2022-12-29T06:00:39;6.07;;;1.50;;
43319;SDS011;28914;48.722;9.332;2022-12-29T06:05:59;1.73;;;1.23;;
43319;SDS011;28914;48.722;9.332;2022-12-29T06:11:18;2.27;;;1.20;;
43319;SDS011;28914;48.722;9.332;2022-12-29T06:16:37;1.87;;;1.00;;
43319;SDS011;28914;48.722;9.332;2022-12-29T06:21:57;2.70;;;1.23;;
43319;SDS011;28914;48.722;9.332;2022-12-29T06:27:16;1.73;;;1.60;;
43319;SDS011;28914;48.722;9.332;2022-12-29T06:32:36;2.50;;;1.63;;
43319;SDS011;28914;48.722;9.332;2022-12-29T06:37:55;2.83;;;1.30;;
43319;SDS011;28914;48.722;9.332;2022-12-29T06:43:15;2.07;;;1.67;;
43319;SDS011;28914;48.722;9.332;2022-12-29T06:48:34;2.40;;;1.63;;
43319;SDS011;28914;48.722;9.332;2022-12-29T06:53:53;5.10;;;1.60;;
43319;SDS011;28914;48.722;9.332;2022-12-29T06:59:12;2.20;;;1.30;;
43319;SDS011;28914;48.722;9.332;2022-12-29T07:04:32;2.70;;;1.80;;
43319;SDS011;28914;48.722;9.332;2022-12-29T07:09:51;5.70;;;1.63;;
43319;SDS011;28914;48.722;9.332;2022-12-29T07:15:10;1.70;;;1.47;;
43319;SDS011;28914;48.722;9.332;2022-12-29T07:20:30;1.60;;;1.40;;
43319;SDS011;28914;48.722;9.332;2022-12-29T07:25:49;2.73;;;1.90;;
43319;SDS011;28914;48.722;9.332;2022-12-29T07:31:12;2.33;;;2.13;;
43319;SDS011;28914;48.722;9.332;2022-12-29T07:36:34;3.27;;;2.90;;
43319;SDS011;28914;48.722;9.332;2022-12-29T07:41:53;3.10;;;2.80;;
43319;SDS011;28914;48.722;9.332;2022-12-29T07:47:14;3.03;;;2.37;;
43319;SDS011;28914;48.722;9.332;2022-12-29T07:52:32;3.10;;;2.50;;
43319;SDS011;28914;48.722;9.332;2022-12-29T07:57:52;2.53;;;1.87;;
43319;SDS011;28914;48.722;9.332;2022-12-29T08:03:12;2.53;;;2.33;;
43319;SDS011;28914;48.722;9.332;2022-12-29T08:08:31;3.00;;;2.20;;
43319;SDS011;28914;48.722;9.332;2022-12-29T08:13:51;2.60;;;2.40;;
43319;SDS011;28914;48.722;9.332;2022-12-29T08:19:10;4.43;;;3.83;;
43319;SDS011;28914;48.722;9.332;2022-12-29T08:24:30;5.10;;;4.60;;
43319;SDS011;28914;48.722;9.332;2022-12-29T08:29:49;6.43;;;5.80;;
43319;SDS011;28914;48.722;9.332;2022-12-29T08:35:08;6.43;;;5.10;;
43319;SDS011;28914;48.722;9.332;2022-12-29T08:40:28;4.90;;;4.47;;
43319;SDS011;28914;48.722;9.332;2022-12-29T08:45:47;4.50;;;4.10;;
43319;SDS011;28914;48.722;9.332;2022-12-29T08:51:06;5.07;;;4.60;;
43319;SDS011;28914;48.722;9.332;2022-12-29T08:56:26;4.83;;;4.23;;
43319;SDS011;28914;48.722;9.332;2022-12-29T09:01:46;4.53;;;3.63;;
43319;SDS011;28914;48.722;9.332;2022-12-29T09:07:05;4.37;;;3.07;;
43319;SDS011;28914;48.722;9.332;2022-12-29T09:12:25;3.30;;;2.60;;
43319;SDS011;28914;48.722;9.332;2022-12-29T09:17:44;5.03;;;2.90;;
43319;SDS011;28914;48.722;9.332;2022-12-29T09:23:04;1.97;;;1.73;;
43319;SDS011;28914;48.722;9.332;2022-12-29T09:28:24;2.37;;;1.90;;
43319;SDS011;28914;48.722;9.332;2022-12-29T09:33:44;2.37;;;1.80;;
43319;SDS011;28914;48.722;9.332;2022-12-29T09:39:03;2.80;;;2.43;;
43319;SDS011;28914;48.722;9.332;2022-12-29T09:44:23;2.70;;;2.43;;
43319;SDS011;28914;48.722;9.332;2022-12-29T09:50:02;2.20;;;1.80;;
43319;SDS011;28914;48.722;9.332;2022-12-29T09:55:40;2.80;;;2.00;;
43319;SDS011;28914;48.722;9.332;2022-12-29T10:01:05;2.47;;;1.53;;
43319;SDS011;28914;48.722;9.332;2022-12-29T10:06:39;1.90;;;1.33;;
43319;SDS011;28914;48.722;9.332;2022-12-29T10:17:58;1.53;;;1.30;;
43319;SDS011;28914;48.722;9.332;2022-12-29T10:23:46;2.30;;;1.90;;
43319;SDS011;28914;48.722;9.332;2022-12-29T10:29:19;2.27;;;1.50;;
43319;SDS011;28914;48.722;9.332;2022-12-29T10:34:42;3.93;;;2.23;;
43319;SDS011;28914;48.722;9.332;2022-12-29T10:45:48;1.50;;;1.10;;
43319;SDS011;28914;48.722;9.332;2022-12-29T10:51:08;1.90;;;1.50;;
43319;SDS011;28914;48.722;9.332;2022-12-29T10:56:29;1.30;;;1.00;;
43319;SDS011;28914;48.722;9.332;2022-12-29T11:07:18;2.90;;;2.20;;
43319;SDS011;28914;48.722;9.332;2022-12-29T11:12:38;2.27;;;1.20;;
43319;SDS011;28914;48.722;9.332;2022-12-29T11:17:57;1.87;;;1.50;;
43319;SDS011;28914;48.722;9.332;2022-12-29T11:23:21;1.90;;;1.10;;
43319;SDS011;28914;48.722;9.332;2022-12-29T11:28:42;1.60;;;1.30;;
43319;SDS011;28914;48.722;9.332;2022-12-29T11:34:06;3.10;;;1.60;;
43319;SDS011;28914;48.722;9.332;2022-12-29T11:40:01;1.77;;;1.37;;
43319;SDS011;28914;48.722;9.332;2022-12-29T11:45:26;1.47;;;0.90;;
43319;SDS011;28914;48.722;9.332;2022-12-29T11:50:52;1.83;;;1.20;;
43319;SDS011;28914;48.722;9.332;2022-12-29T11:56:16;2.20;;;1.63;;
43319;SDS011;28914;48.722;9.332;2022-12-29T12:01:38;2.03;;;1.30;;
43319;SDS011;28914;48.722;9.332;2022-12-29T12:07:03;2.30;;;1.47;;
43319;SDS011;28914;48.722;9.332;2022-12-29T12:12:40;4.43;;;1.70;;
43319;SDS011;28914;48.722;9.332;2022-12-29T12:18:08;1.60;;;1.20;;
43319;SDS011;28914;48.722;9.332;2022-12-29T12:23:37;1.87;;;1.73;;
43319;SDS011;28914;48.722;9.332;2022-12-29T12:34:45;1.20;;;0.93;;
43319;SDS011;28914;48.722;9.332;2022-12-29T12:40:19;1.80;;;1.20;;
43319;SDS011;28914;48.722;9.332;2022-12-29T12:51:20;4.83;;;2.93;;
43319;SDS011;28914;48.722;9.332;2022-12-29T12:56:47;2.77;;;2.40;;
43319;SDS011;28914;48.722;9.332;2022-12-29T13:02:42;3.40;;;2.30;;
43319;SDS011;28914;48.722;9.332;2022-12-29T13:08:06;2.20;;;1.60;;
43319;SDS011;28914;48.722;9.332;2022-12-29T13:19:24;1.77;;;1.23;;
43319;SDS011;28914;48.722;9.332;2022-12-29T13:30:58;5.53;;;2.03;;
43319;SDS011;28914;48.722;9.332;2022-12-29T13:36:42;1.63;;;1.43;;
43319;SDS011;28914;48.722;9.332;2022-12-29T13:42:04;1.30;;;1.10;;
43319;SDS011;28914;48.722;9.332;2022-12-29T13:47:26;1.37;;;1.10;;
43319;SDS011;28914;48.722;9.332;2022-12-29T13:53:18;2.07;;;1.77;;
43319;SDS011;28914;48.722;9.332;2022-12-29T13:59:05;3.00;;;2.00;;
43319;SDS011;28914;48.722;9.332;2022-12-29T14:04:55;1.70;;;1.50;;
43319;SDS011;28914;48.722;9.332;2022-12-29T14:15:54;1.87;;;1.53;;
43319;SDS011;28914;48.722;9.332;2022-12-29T14:21:21;2.50;;;1.97;;
43319;SDS011;28914;48.722;9.332;2022-12-29T14:26:47;1.63;;;1.20;;
43319;SDS011;28914;48.722;9.332;2022-12-29T14:37:43;1.83;;;1.50;;
43319;SDS011;28914;48.722;9.332;2022-12-29T14:43:02;1.77;;;1.33;;
43319;SDS011;28914;48.722;9.332;2022-12-29T14:48:47;1.70;;;1.50;;
43319;SDS011;28914;48.722;9.332;2022-12-29T14:54:55;1.93;;;1.47;;
43319;SDS011;28914;48.722;9.332;2022-12-29T14:59:57;7.30;;;5.63;;
43319;SDS011;28914;48.722;9.332;2022-12-29T15:05:41;4.87;;;4.20;;
43319;SDS011;28914;48.722;9.332;2022-12-29T15:16:34;3.40;;;2.90;;
43319;SDS011;28914;48.722;9.332;2022-12-29T15:21:55;3.27;;;2.70;;
43319;SDS011;28914;48.722;9.332;2022-12-29T15:27:15;3.47;;;3.17;;
43319;SDS011;28914;48.722;9.332;2022-12-29T15:32:44;9.20;;;7.80;;
43319;SDS011;28914;48.722;9.332;2022-12-29T15:38:14;7.97;;;6.90;;
43319;SDS011;28914;48.722;9.332;2022-12-29T15:43:44;11.27;;;9.10;;
43319;SDS011;28914;48.722;9.332;2022-12-29T15:49:26;5.97;;;5.37;;
43319;SDS011;28914;48.722;9.332;2022-12-29T15:54:46;6.47;;;5.87;;
43319;SDS011;28914;48.722;9.332;2022-12-29T16:00:29;6.47;;;5.83;;
43319;SDS011;28914;48.722;9.332;2022-12-29T16:05:54;5.87;;;5.13;;
43319;SDS011;28914;48.722;9.332;2022-12-29T16:11:20;6.17;;;5.40;;
43319;SDS011;28914;48.722;9.332;2022-12-29T16:16:44;8.07;;;6.60;;
43319;SDS011;28914;48.722;9.332;2022-12-29T16:22:11;4.70;;;4.30;;
43319;SDS011;28914;48.722;9.332;2022-12-29T16:27:37;4.93;;;4.43;;
43319;SDS011;28914;48.722;9.332;2022-12-29T16:32:59;5.40;;;3.97;;
43319;SDS011;28914;48.722;9.332;2022-12-29T16:38:21;3.47;;;3.17;;
43319;SDS011;28914;48.722;9.332;2022-12-29T16:43:41;2.40;;;2.20;;
43319;SDS011;28914;48.722;9.332;2022-12-29T16:49:01;2.33;;;1.83;;
43319;SDS011;28914;48.722;9.332;2022-12-29T16:54:24;2.33;;;1.60;;
43319;SDS011;28914;48.722;9.332;2022-12-29T16:59:52;3.10;;;1.80;;
43319;SDS011;28914;48.722;9.332;2022-12-29T17:05:14;1.60;;;1.40;;
43319;SDS011;28914;48.722;9.332;2022-12-29T17:10:35;3.50;;;2.00;;
43319;SDS011;28914;48.722;9.332;2022-12-29T17:16:13;1.70;;;1.57;;
43319;SDS011;28914;48.722;9.332;2022-12-29T17:21:32;3.00;;;2.50;;
43319;SDS011;28914;48.722;9.332;2022-12-29T17:26:52;3.40;;;3.10;;
43319;SDS011;28914;48.722;9.332;2022-12-29T17:32:14;3.03;;;2.27;;
43319;SDS011;28914;48.722;9.332;2022-12-29T17:37:34;2.10;;;1.90;;
43319;SDS011;28914;48.722;9.332;2022-12-29T17:42:56;1.80;;;1.60;;
43319;SDS011;28914;48.722;9.332;2022-12-29T17:48:16;1.80;;;1.67;;
43319;SDS011;28914;48.722;9.332;2022-12-29T17:53:36;2.73;;;1.87;;
43319;SDS011;28914;48.722;9.332;2022-12-29T17:58:55;5.20;;;2.40;;
43319;SDS011;28914;48.722;9.332;2022-12-29T18:04:16;1.93;;;1.63;;
43319;SDS011;28914;48.722;9.332;2022-12-29T18:09:38;2.57;;;2.20;;
43319;SDS011;28914;48.722;9.332;2022-12-29T18:14:57;1.73;;;1.50;;
43319;SDS011;28914;48.722;9.332;2022-12-29T18:20:17;2.57;;;1.90;;
43319;SDS011;28914;48.722;9.332;2022-12-29T18:25:43;2.50;;;1.87;;
43319;SDS011;28914;48.722;9.332;2022-12-29T18:31:09;2.03;;;1.83;;
43319;SDS011;28914;48.722;9.332;2022-12-29T18:36:35;5.63;;;4.50;;
43319;SDS011;28914;48.722;9.332;2022-12-29T18:41:54;3.00;;;2.50;;
43319;SDS011;28914;48.722;9.332;2022-12-29T18:47:13;3.03;;;2.80;;
43319;SDS011;28914;48.722;9.332;2022-12-29T18:52:32;2.40;;;2.20;;
43319;SDS011;28914;48.722;9.332;2022-12-29T18:57:51;2.00;;;1.60;;
43319;SDS011;28914;48.722;9.332;2022-12-29T19:03:11;4.10;;;2.83;;
43319;SDS011;28914;48.722;9.332;2022-12-29T19:08:31;3.00;;;2.53;;
43319;SDS011;28914;48.722;9.332;2022-12-29T19:13:50;4.50;;;3.23;;
43319;SDS011;28914;48.722;9.332;2022-12-29T19:19:12;4.23;;;3.87;;
43319;SDS011;28914;48.722;9.332;2022-12-29T19:24:32;3.90;;;3.53;;
43319;SDS011;28914;48.722;9.332;2022-12-29T19:29:52;7.03;;;6.43;;
43319;SDS011;28914;48.722;9.332;2022-12-29T19:35:11;7.00;;;6.40;;
43319;SDS011;28914;48.722;9.332;2022-12-29T19:40:30;6.10;;;5.60;;
43319;SDS011;28914;48.722;9.332;2022-12-29T19:45:50;5.87;;;5.27;;
43319;SDS011;28914;48.722;9.332;2022-12-29T19:51:12;4.60;;;4.17;;
43319;SDS011;28914;48.722;9.332;2022-12-29T19:56:34;3.90;;;3.50;;
43319;SDS011;28914;48.722;9.332;2022-12-29T20:01:53;3.67;;;3.00;;
43319;SDS011;28914;48.722;9.332;2022-12-29T20:07:13;4.47;;;4.07;;
43319;SDS011;28914;48.722;9.332;2022-12-29T20:12:32;3.97;;;3.17;;
43319;SDS011;28914;48.722;9.332;2022-12-29T20:17:54;3.80;;;3.40;;
43319;SDS011;28914;48.722;9.332;2022-12-29T20:23:13;4.47;;;2.63;;
43319;SDS011;28914;48.722;9.332;2022-12-29T20:28:32;3.57;;;2.63;;
43319;SDS011;28914;48.722;9.332;2022-12-29T20:33:52;2.40;;;1.40;;
43319;SDS011;28914;48.722;9.332;2022-12-29T20:39:15;2.53;;;1.63;;
43319;SDS011;28914;48.722;9.332;2022-12-29T20:44:37;1.93;;;1.73;;
43319;SDS011;28914;48.722;9.332;2022-12-29T20:49:56;2.40;;;2.20;;
43319;SDS011;28914;48.722;9.332;2022-12-29T20:55:16;2.30;;;1.70;;
43319;SDS011;28914;48.722;9.332;2022-12-29T21:00:35;6.73;;;1.60;;
43319;SDS011;28914;48.722;9.332;2022-12-29T21:05:55;4.50;;;2.10;;
43319;SDS011;28914;48.722;9.332;2022-12-29T21:11:14;7.00;;;5.57;;
43319;SDS011;28914;48.722;9.332;2022-12-29T21:16:33;5.70;;;5.20;;
43319;SDS011;28914;48.722;9.332;2022-12-29T21:21:52;3.67;;;2.40;;
43319;SDS011;28914;48.722;9.332;2022-12-29T21:27:11;1.60;;;1.10;;
43319;SDS011;28914;48.722;9.332;2022-12-29T21:32:30;1.43;;;1.30;;
43319;SDS011;28914;48.722;9.332;2022-12-29T21:37:50;1.60;;;1.40;;
43319;SDS011;28914;48.722;9.332;2022-12-29T21:43:09;3.00;;;2.57;;
43319;SDS011;28914;48.722;9.332;2022-12-29T21:48:29;3.50;;;2.10;;
43319;SDS011;28914;48.722;9.332;2022-12-29T21:53:53;7.73;;;3.47;;
43319;SDS011;28914;48.722;9.332;2022-12-29T21:59:14;3.93;;;3.33;;
43319;SDS011;28914;48.722;9.332;2022-12-29T22:04:53;3.40;;;2.30;;
43319;SDS011;28914;48.722;9.332;2022-12-29T22:10:31;4.60;;;3.03;;
43319;SDS011;28914;48.722;9.332;2022-12-29T22:16:10;2.57;;;1.47;;
43319;SDS011;28914;48.722;9.332;2022-12-29T22:21:30;2.53;;;1.40;;
43319;SDS011;28914;48.722;9.332;2022-12-29T22:26:49;1.17;;;0.77;;
43319;SDS011;28914;48.722;9.332;2022-12-29T22:32:08;1.40;;;0.83;;
43319;SDS011;28914;48.722;9.332;2022-12-29T22:37:28;1.00;;;0.90;;
43319;SDS011;28914;48.722;9.332;2022-12-29T22:42:47;0.90;;;0.60;;
43319;SDS011;28914;48.722;9.332;2022-12-29T22:48:06;0.80;;;0.60;;
43319;SDS011;28914;48.722;9.332;2022-12-29T22:53:26;2.30;;;1.13;;
43319;SDS011;28914;48.722;9.332;2022-12-29T22:58:46;1.50;;;1.10;;
43319;SDS011;28914;48.722;9.332;2022-12-29T23:04:06;2.03;;;1.40;;
43319;SDS011;28914;48.722;9.332;2022-12-29T23:09:25;2.40;;;1.73;;
43319;SDS011;28914;48.722;9.332;2022-12-29T23:14:44;2.00;;;1.30;;
43319;SDS011;28914;48.722;9.332;2022-12-29T23:20:06;2.47;;;1.30;;
43319;SDS011;28914;48.722;9.332;2022-12-29T23:25:26;1.53;;;1.10;;
43319;SDS011;28914;48.722;9.332;2022-12-29T23:30:45;1.30;;;1.00;;
43319;SDS011;28914;48.722;9.332;2022-12-29T23:36:04;1.60;;;0.90;;
43319;SDS011;28914;48.722;9.332;2022-12-29T23:41:24;1.20;;;0.90;;
43319;SDS011;28914;48.722;9.332;2022-12-29T23:46:44;1.83;;;1.03;;
43319;SDS011;28914;48.722;9.332;2022-12-29T23:52:04;1.10;;;0.90;;
43319;SDS011;28914;48.722;9.332;2022-12-29T23:57:23;1.60;;;1.30;;
